sensor_id;sensor_type;location;lat;lon;timestamp;P1;durP1;ratioP1;P2;durP2;ratioP2
12703;SDS011;6416;52.182;7.650;2024-01-30T00:01:56;12.17;;;9.60;;
12703;SDS011;6416;52.182;7.650;2024-01-30T00:04:21;10.73;;;9.63;;
12703;SDS011;6416;52.182;7.650;2024-01-30T00:06:47;11.43;;;10.17;;
12703;SDS011;6416;52.182;7.650;2024-01-30T00:09:12;11.50;;;9.83;;
12703;SDS011;6416;52.182;7.650;2024-01-30T00:11:38;11.90;;;10.60;;
12703;SDS011;6416;52.182;7.650;2024-01-30T00:14:03;13.70;;;10.33;;
12703;SDS011;6416;52.182;7.650;2024-01-30T00:16:29;11.70;;;9.90;;
12703;SDS011;6416;52.182;7.650;2024-01-30T00:18:55;11.00;;;9.90;;
12703;SDS011;6416;52.182;7.650;2024-01-30T00:21:20;11.53;;;10.13;;
12703;SDS011;6416;52.182;7.650;2024-01-30T00:23:46;12.13;;;10.10;;
12703;SDS011;6416;52.182;7.650;2024-01-30T00:26:12;12.17;;;9.97;;
12703;SDS011;6416;52.182;7.650;2024-01-30T00:28:38;11.03;;;9.83;;
12703;SDS011;6416;52.182;7.650;2024-01-30T00:31:03;11.33;;;9.97;;
12703;SDS011;6416;52.182;7.650;2024-01-30T00:33:29;13.83;;;10.60;;
12703;SDS011;6416;52.182;7.650;2024-01-30T00:35:55;14.67;;;10.70;;
12703;SDS011;6416;52.182;7.650;2024-01-30T00:38:20;11.87;;;10.67;;
12703;SDS011;6416;52.182;7.650;2024-01-30T00:40:46;11.20;;;10.03;;
12703;SDS011;6416;52.182;7.650;2024-01-30T00:43:11;12.20;;;11.00;;
12703;SDS011;6416;52.182;7.650;2024-01-30T00:45:37;12.03;;;10.67;;
12703;SDS011;6416;52.182;7.650;2024-01-30T00:48:02;12.20;;;10.90;;
12703;SDS011;6416;52.182;7.650;2024-01-30T00:50:28;11.60;;;10.50;;
12703;SDS011;6416;52.182;7.650;2024-01-30T00:52:53;13.13;;;11.37;;
12703;SDS011;6416;52.182;7.650;2024-01-30T00:55:19;12.13;;;10.90;;
12703;SDS011;6416;52.182;7.650;2024-01-30T00:57:44;12.43;;;11.13;;
12703;SDS011;6416;52.182;7.650;2024-01-30T01:00:10;11.23;;;10.03;;
12703;SDS011;6416;52.182;7.650;2024-01-30T01:02:37;13.07;;;11.17;;
12703;SDS011;6416;52.182;7.650;2024-01-30T01:05:02;13.70;;;11.10;;
12703;SDS011;6416;52.182;7.650;2024-01-30T01:07:28;11.67;;;10.47;;
12703;SDS011;6416;52.182;7.650;2024-01-30T01:09:53;11.57;;;10.47;;
12703;SDS011;6416;52.182;7.650;2024-01-30T01:12:19;11.73;;;10.60;;
12703;SDS011;6416;52.182;7.650;2024-01-30T01:14:44;13.83;;;11.60;;
12703;SDS011;6416;52.182;7.650;2024-01-30T01:17:10;13.37;;;11.00;;
12703;SDS011;6416;52.182;7.650;2024-01-30T01:19:36;13.10;;;10.73;;
12703;SDS011;6416;52.182;7.650;2024-01-30T01:22:02;12.40;;;10.97;;
12703;SDS011;6416;52.182;7.650;2024-01-30T01:24:27;13.93;;;10.23;;
12703;SDS011;6416;52.182;7.650;2024-01-30T01:26:53;12.97;;;10.77;;
12703;SDS011;6416;52.182;7.650;2024-01-30T01:29:18;12.60;;;11.30;;
12703;SDS011;6416;52.182;7.650;2024-01-30T01:31:44;11.43;;;10.27;;
12703;SDS011;6416;52.182;7.650;2024-01-30T01:34:10;12.70;;;10.40;;
12703;SDS011;6416;52.182;7.650;2024-01-30T01:36:35;12.33;;;10.93;;
12703;SDS011;6416;52.182;7.650;2024-01-30T01:39:01;13.53;;;10.50;;
12703;SDS011;6416;52.182;7.650;2024-01-30T01:41:32;12.13;;;10.83;;
12703;SDS011;6416;52.182;7.650;2024-01-30T01:43:58;11.07;;;9.87;;
12703;SDS011;6416;52.182;7.650;2024-01-30T01:46:27;11.80;;;10.70;;
12703;SDS011;6416;52.182;7.650;2024-01-30T01:48:56;11.37;;;10.17;;
12703;SDS011;6416;52.182;7.650;2024-01-30T01:51:22;12.57;;;10.83;;
12703;SDS011;6416;52.182;7.650;2024-01-30T01:53:49;12.33;;;10.50;;
12703;SDS011;6416;52.182;7.650;2024-01-30T01:56:15;12.20;;;10.97;;
12703;SDS011;6416;52.182;7.650;2024-01-30T01:58:41;12.77;;;10.60;;
12703;SDS011;6416;52.182;7.650;2024-01-30T02:01:08;12.30;;;10.97;;
12703;SDS011;6416;52.182;7.650;2024-01-30T02:03:34;12.17;;;10.87;;
12703;SDS011;6416;52.182;7.650;2024-01-30T02:05:59;12.33;;;11.13;;
12703;SDS011;6416;52.182;7.650;2024-01-30T02:08:25;11.50;;;10.30;;
12703;SDS011;6416;52.182;7.650;2024-01-30T02:10:51;11.93;;;10.70;;
12703;SDS011;6416;52.182;7.650;2024-01-30T02:13:17;11.67;;;10.37;;
12703;SDS011;6416;52.182;7.650;2024-01-30T02:15:42;11.33;;;10.00;;
12703;SDS011;6416;52.182;7.650;2024-01-30T02:18:08;11.07;;;9.90;;
12703;SDS011;6416;52.182;7.650;2024-01-30T02:20:34;11.03;;;9.90;;
12703;SDS011;6416;52.182;7.650;2024-01-30T02:23:01;11.80;;;10.20;;
12703;SDS011;6416;52.182;7.650;2024-01-30T02:25:31;11.37;;;10.17;;
12703;SDS011;6416;52.182;7.650;2024-01-30T02:28:00;11.40;;;10.20;;
12703;SDS011;6416;52.182;7.650;2024-01-30T02:30:26;12.57;;;9.83;;
12703;SDS011;6416;52.182;7.650;2024-01-30T02:32:51;11.10;;;10.00;;
12703;SDS011;6416;52.182;7.650;2024-01-30T02:35:17;11.07;;;9.97;;
12703;SDS011;6416;52.182;7.650;2024-01-30T02:37:42;12.50;;;10.43;;
12703;SDS011;6416;52.182;7.650;2024-01-30T02:40:08;11.17;;;10.07;;
12703;SDS011;6416;52.182;7.650;2024-01-30T02:42:33;10.43;;;9.30;;
12703;SDS011;6416;52.182;7.650;2024-01-30T02:44:59;11.30;;;9.50;;
12703;SDS011;6416;52.182;7.650;2024-01-30T02:47:24;11.63;;;9.73;;
12703;SDS011;6416;52.182;7.650;2024-01-30T02:49:50;11.37;;;10.17;;
12703;SDS011;6416;52.182;7.650;2024-01-30T02:52:15;11.13;;;9.93;;
12703;SDS011;6416;52.182;7.650;2024-01-30T02:54:41;10.77;;;9.50;;
12703;SDS011;6416;52.182;7.650;2024-01-30T02:57:06;12.17;;;10.33;;
12703;SDS011;6416;52.182;7.650;2024-01-30T02:59:32;10.90;;;9.67;;
12703;SDS011;6416;52.182;7.650;2024-01-30T03:01:57;11.23;;;10.13;;
12703;SDS011;6416;52.182;7.650;2024-01-30T03:04:23;11.40;;;9.67;;
12703;SDS011;6416;52.182;7.650;2024-01-30T03:06:51;11.00;;;9.77;;
12703;SDS011;6416;52.182;7.650;2024-01-30T03:09:16;11.30;;;10.13;;
12703;SDS011;6416;52.182;7.650;2024-01-30T03:11:42;11.17;;;10.03;;
12703;SDS011;6416;52.182;7.650;2024-01-30T03:14:07;11.47;;;10.27;;
12703;SDS011;6416;52.182;7.650;2024-01-30T03:16:33;12.30;;;10.47;;
12703;SDS011;6416;52.182;7.650;2024-01-30T03:18:58;12.77;;;11.00;;
12703;SDS011;6416;52.182;7.650;2024-01-30T03:21:24;10.43;;;9.43;;
12703;SDS011;6416;52.182;7.650;2024-01-30T03:23:49;10.60;;;9.57;;
12703;SDS011;6416;52.182;7.650;2024-01-30T03:26:15;10.43;;;9.43;;
12703;SDS011;6416;52.182;7.650;2024-01-30T03:28:40;11.30;;;10.03;;
12703;SDS011;6416;52.182;7.650;2024-01-30T03:31:06;10.83;;;9.73;;
12703;SDS011;6416;52.182;7.650;2024-01-30T03:33:31;11.27;;;10.07;;
12703;SDS011;6416;52.182;7.650;2024-01-30T03:35:57;10.60;;;9.50;;
12703;SDS011;6416;52.182;7.650;2024-01-30T03:38:22;10.70;;;9.60;;
12703;SDS011;6416;52.182;7.650;2024-01-30T03:40:48;11.37;;;9.80;;
12703;SDS011;6416;52.182;7.650;2024-01-30T03:43:13;11.17;;;10.07;;
12703;SDS011;6416;52.182;7.650;2024-01-30T03:45:39;11.73;;;10.00;;
12703;SDS011;6416;52.182;7.650;2024-01-30T03:48:04;10.70;;;9.60;;
12703;SDS011;6416;52.182;7.650;2024-01-30T03:50:30;11.77;;;10.17;;
12703;SDS011;6416;52.182;7.650;2024-01-30T03:52:56;10.87;;;9.77;;
12703;SDS011;6416;52.182;7.650;2024-01-30T03:55:21;12.27;;;9.67;;
12703;SDS011;6416;52.182;7.650;2024-01-30T03:57:47;12.10;;;10.67;;
12703;SDS011;6416;52.182;7.650;2024-01-30T04:00:12;12.97;;;10.27;;
12703;SDS011;6416;52.182;7.650;2024-01-30T04:02:39;11.30;;;10.20;;
12703;SDS011;6416;52.182;7.650;2024-01-30T04:05:07;11.33;;;10.20;;
12703;SDS011;6416;52.182;7.650;2024-01-30T04:07:33;12.30;;;10.33;;
12703;SDS011;6416;52.182;7.650;2024-01-30T04:09:58;14.43;;;10.33;;
12703;SDS011;6416;52.182;7.650;2024-01-30T04:12:24;11.40;;;10.30;;
12703;SDS011;6416;52.182;7.650;2024-01-30T04:14:49;10.83;;;9.77;;
12703;SDS011;6416;52.182;7.650;2024-01-30T04:17:15;11.93;;;9.93;;
12703;SDS011;6416;52.182;7.650;2024-01-30T04:19:40;10.40;;;9.30;;
12703;SDS011;6416;52.182;7.650;2024-01-30T04:22:05;11.27;;;10.07;;
12703;SDS011;6416;52.182;7.650;2024-01-30T04:24:31;10.77;;;9.67;;
12703;SDS011;6416;52.182;7.650;2024-01-30T04:26:56;12.83;;;9.70;;
12703;SDS011;6416;52.182;7.650;2024-01-30T04:29:22;11.57;;;10.37;;
12703;SDS011;6416;52.182;7.650;2024-01-30T04:31:47;11.23;;;9.90;;
12703;SDS011;6416;52.182;7.650;2024-01-30T04:34:13;12.40;;;11.10;;
12703;SDS011;6416;52.182;7.650;2024-01-30T04:36:38;11.50;;;10.27;;
12703;SDS011;6416;52.182;7.650;2024-01-30T04:39:04;11.03;;;9.93;;
12703;SDS011;6416;52.182;7.650;2024-01-30T04:41:29;11.47;;;10.27;;
12703;SDS011;6416;52.182;7.650;2024-01-30T04:43:55;11.00;;;9.40;;
12703;SDS011;6416;52.182;7.650;2024-01-30T04:46:20;11.10;;;9.90;;
12703;SDS011;6416;52.182;7.650;2024-01-30T04:48:45;12.13;;;10.27;;
12703;SDS011;6416;52.182;7.650;2024-01-30T04:51:11;10.20;;;9.20;;
12703;SDS011;6416;52.182;7.650;2024-01-30T04:53:36;13.37;;;10.17;;
12703;SDS011;6416;52.182;7.650;2024-01-30T04:56:02;11.50;;;10.27;;
12703;SDS011;6416;52.182;7.650;2024-01-30T04:58:29;11.70;;;9.83;;
12703;SDS011;6416;52.182;7.650;2024-01-30T05:00:54;11.93;;;10.40;;
12703;SDS011;6416;52.182;7.650;2024-01-30T05:03:20;12.17;;;10.30;;
12703;SDS011;6416;52.182;7.650;2024-01-30T05:05:45;11.77;;;10.53;;
12703;SDS011;6416;52.182;7.650;2024-01-30T05:08:11;11.23;;;10.13;;
12703;SDS011;6416;52.182;7.650;2024-01-30T05:10:36;10.77;;;9.00;;
12703;SDS011;6416;52.182;7.650;2024-01-30T05:13:02;9.63;;;8.63;;
12703;SDS011;6416;52.182;7.650;2024-01-30T05:15:27;15.00;;;10.57;;
12703;SDS011;6416;52.182;7.650;2024-01-30T05:17:53;14.57;;;10.20;;
12703;SDS011;6416;52.182;7.650;2024-01-30T05:20:19;14.77;;;10.00;;
12703;SDS011;6416;52.182;7.650;2024-01-30T05:22:44;13.13;;;11.83;;
12703;SDS011;6416;52.182;7.650;2024-01-30T05:25:10;11.20;;;10.03;;
12703;SDS011;6416;52.182;7.650;2024-01-30T05:27:37;12.10;;;10.77;;
12703;SDS011;6416;52.182;7.650;2024-01-30T05:30:02;11.50;;;10.00;;
12703;SDS011;6416;52.182;7.650;2024-01-30T05:32:28;10.33;;;9.23;;
12703;SDS011;6416;52.182;7.650;2024-01-30T05:34:54;10.43;;;9.43;;
12703;SDS011;6416;52.182;7.650;2024-01-30T05:37:19;14.07;;;10.50;;
12703;SDS011;6416;52.182;7.650;2024-01-30T05:39:45;11.53;;;10.33;;
12703;SDS011;6416;52.182;7.650;2024-01-30T05:42:10;12.37;;;10.73;;
12703;SDS011;6416;52.182;7.650;2024-01-30T05:44:35;11.73;;;10.03;;
12703;SDS011;6416;52.182;7.650;2024-01-30T05:47:01;10.93;;;9.70;;
12703;SDS011;6416;52.182;7.650;2024-01-30T05:49:26;11.63;;;9.83;;
12703;SDS011;6416;52.182;7.650;2024-01-30T05:51:52;13.00;;;10.50;;
12703;SDS011;6416;52.182;7.650;2024-01-30T05:54:17;10.30;;;9.30;;
12703;SDS011;6416;52.182;7.650;2024-01-30T05:56:43;11.47;;;10.27;;
12703;SDS011;6416;52.182;7.650;2024-01-30T05:59:08;11.27;;;9.93;;
12703;SDS011;6416;52.182;7.650;2024-01-30T06:01:34;11.33;;;10.00;;
12703;SDS011;6416;52.182;7.650;2024-01-30T06:03:59;11.90;;;10.70;;
12703;SDS011;6416;52.182;7.650;2024-01-30T06:06:25;12.10;;;9.37;;
12703;SDS011;6416;52.182;7.650;2024-01-30T06:08:50;11.63;;;10.40;;
12703;SDS011;6416;52.182;7.650;2024-01-30T06:11:16;12.17;;;10.53;;
12703;SDS011;6416;52.182;7.650;2024-01-30T06:13:41;12.33;;;10.03;;
12703;SDS011;6416;52.182;7.650;2024-01-30T06:16:09;11.20;;;10.10;;
12703;SDS011;6416;52.182;7.650;2024-01-30T06:18:35;12.43;;;11.17;;
12703;SDS011;6416;52.182;7.650;2024-01-30T06:21:00;13.03;;;10.90;;
12703;SDS011;6416;52.182;7.650;2024-01-30T06:23:26;12.73;;;11.37;;
12703;SDS011;6416;52.182;7.650;2024-01-30T06:25:51;11.67;;;10.47;;
12703;SDS011;6416;52.182;7.650;2024-01-30T06:28:16;12.07;;;10.43;;
12703;SDS011;6416;52.182;7.650;2024-01-30T06:30:42;11.83;;;10.63;;
12703;SDS011;6416;52.182;7.650;2024-01-30T06:33:07;13.50;;;12.10;;
12703;SDS011;6416;52.182;7.650;2024-01-30T06:35:33;14.10;;;11.53;;
12703;SDS011;6416;52.182;7.650;2024-01-30T06:37:58;11.33;;;10.13;;
12703;SDS011;6416;52.182;7.650;2024-01-30T06:40:24;11.70;;;10.13;;
12703;SDS011;6416;52.182;7.650;2024-01-30T06:42:49;11.50;;;10.30;;
12703;SDS011;6416;52.182;7.650;2024-01-30T06:45:15;10.97;;;9.60;;
12703;SDS011;6416;52.182;7.650;2024-01-30T06:47:40;11.30;;;9.40;;
12703;SDS011;6416;52.182;7.650;2024-01-30T06:50:06;10.43;;;9.17;;
12703;SDS011;6416;52.182;7.650;2024-01-30T06:52:32;11.07;;;9.93;;
12703;SDS011;6416;52.182;7.650;2024-01-30T06:54:57;12.43;;;10.17;;
12703;SDS011;6416;52.182;7.650;2024-01-30T06:57:23;11.23;;;10.07;;
12703;SDS011;6416;52.182;7.650;2024-01-30T06:59:48;10.97;;;9.87;;
12703;SDS011;6416;52.182;7.650;2024-01-30T07:02:13;10.63;;;9.53;;
12703;SDS011;6416;52.182;7.650;2024-01-30T07:04:39;10.57;;;9.47;;
12703;SDS011;6416;52.182;7.650;2024-01-30T07:07:04;10.37;;;9.37;;
12703;SDS011;6416;52.182;7.650;2024-01-30T07:09:30;10.20;;;9.13;;
12703;SDS011;6416;52.182;7.650;2024-01-30T07:11:56;11.83;;;9.73;;
12703;SDS011;6416;52.182;7.650;2024-01-30T07:14:21;10.83;;;9.73;;
12703;SDS011;6416;52.182;7.650;2024-01-30T07:16:47;10.53;;;9.23;;
12703;SDS011;6416;52.182;7.650;2024-01-30T07:19:12;13.10;;;10.13;;
12703;SDS011;6416;52.182;7.650;2024-01-30T07:21:38;13.67;;;9.50;;
12703;SDS011;6416;52.182;7.650;2024-01-30T07:24:03;10.73;;;9.63;;
12703;SDS011;6416;52.182;7.650;2024-01-30T07:26:29;11.60;;;9.87;;
12703;SDS011;6416;52.182;7.650;2024-01-30T07:28:54;10.80;;;9.70;;
12703;SDS011;6416;52.182;7.650;2024-01-30T07:31:20;15.47;;;10.03;;
12703;SDS011;6416;52.182;7.650;2024-01-30T07:33:45;11.77;;;10.13;;
12703;SDS011;6416;52.182;7.650;2024-01-30T07:36:11;10.63;;;8.53;;
12703;SDS011;6416;52.182;7.650;2024-01-30T07:38:36;13.17;;;10.43;;
12703;SDS011;6416;52.182;7.650;2024-01-30T07:41:02;11.20;;;10.10;;
12703;SDS011;6416;52.182;7.650;2024-01-30T07:43:27;10.77;;;9.67;;
12703;SDS011;6416;52.182;7.650;2024-01-30T07:45:53;12.03;;;9.47;;
12703;SDS011;6416;52.182;7.650;2024-01-30T07:48:18;10.40;;;9.40;;
12703;SDS011;6416;52.182;7.650;2024-01-30T07:50:44;10.97;;;9.87;;
12703;SDS011;6416;52.182;7.650;2024-01-30T07:53:09;10.93;;;9.23;;
12703;SDS011;6416;52.182;7.650;2024-01-30T07:55:34;10.90;;;9.73;;
12703;SDS011;6416;52.182;7.650;2024-01-30T07:58:00;11.57;;;9.90;;
12703;SDS011;6416;52.182;7.650;2024-01-30T08:00:26;10.93;;;9.83;;
12703;SDS011;6416;52.182;7.650;2024-01-30T08:02:51;11.30;;;9.53;;
12703;SDS011;6416;52.182;7.650;2024-01-30T08:05:17;10.13;;;9.00;;
12703;SDS011;6416;52.182;7.650;2024-01-30T08:07:42;11.93;;;9.90;;
12703;SDS011;6416;52.182;7.650;2024-01-30T08:10:08;11.43;;;10.23;;
12703;SDS011;6416;52.182;7.650;2024-01-30T08:12:34;10.17;;;8.77;;
12703;SDS011;6416;52.182;7.650;2024-01-30T08:14:59;11.83;;;9.80;;
12703;SDS011;6416;52.182;7.650;2024-01-30T08:17:25;10.40;;;9.40;;
12703;SDS011;6416;52.182;7.650;2024-01-30T08:19:50;10.50;;;9.37;;
12703;SDS011;6416;52.182;7.650;2024-01-30T08:22:15;10.57;;;8.97;;
12703;SDS011;6416;52.182;7.650;2024-01-30T08:24:41;11.17;;;8.83;;
12703;SDS011;6416;52.182;7.650;2024-01-30T08:27:07;12.13;;;9.27;;
12703;SDS011;6416;52.182;7.650;2024-01-30T08:29:32;12.90;;;8.50;;
12703;SDS011;6416;52.182;7.650;2024-01-30T08:31:58;8.97;;;8.13;;
12703;SDS011;6416;52.182;7.650;2024-01-30T08:34:23;10.00;;;8.97;;
12703;SDS011;6416;52.182;7.650;2024-01-30T08:36:49;11.50;;;8.70;;
12703;SDS011;6416;52.182;7.650;2024-01-30T08:39:14;10.40;;;9.30;;
12703;SDS011;6416;52.182;7.650;2024-01-30T08:41:40;10.17;;;8.80;;
12703;SDS011;6416;52.182;7.650;2024-01-30T08:44:05;9.80;;;8.80;;
12703;SDS011;6416;52.182;7.650;2024-01-30T08:46:30;11.83;;;8.57;;
12703;SDS011;6416;52.182;7.650;2024-01-30T08:48:56;11.03;;;8.47;;
12703;SDS011;6416;52.182;7.650;2024-01-30T08:51:21;10.70;;;8.73;;
12703;SDS011;6416;52.182;7.650;2024-01-30T08:53:47;9.90;;;9.00;;
12703;SDS011;6416;52.182;7.650;2024-01-30T08:56:12;10.43;;;8.60;;
12703;SDS011;6416;52.182;7.650;2024-01-30T08:58:38;10.47;;;9.37;;
12703;SDS011;6416;52.182;7.650;2024-01-30T09:01:04;10.53;;;9.23;;
12703;SDS011;6416;52.182;7.650;2024-01-30T09:03:31;9.63;;;8.73;;
12703;SDS011;6416;52.182;7.650;2024-01-30T09:05:57;9.73;;;8.50;;
12703;SDS011;6416;52.182;7.650;2024-01-30T09:08:22;10.07;;;8.80;;
12703;SDS011;6416;52.182;7.650;2024-01-30T09:10:47;10.43;;;8.93;;
12703;SDS011;6416;52.182;7.650;2024-01-30T09:13:13;10.10;;;8.87;;
12703;SDS011;6416;52.182;7.650;2024-01-30T09:15:38;10.07;;;8.97;;
12703;SDS011;6416;52.182;7.650;2024-01-30T09:18:04;10.30;;;9.20;;
12703;SDS011;6416;52.182;7.650;2024-01-30T09:20:30;12.07;;;8.80;;
12703;SDS011;6416;52.182;7.650;2024-01-30T09:22:55;10.97;;;8.67;;
12703;SDS011;6416;52.182;7.650;2024-01-30T09:25:21;10.27;;;9.27;;
12703;SDS011;6416;52.182;7.650;2024-01-30T09:27:46;11.37;;;8.30;;
12703;SDS011;6416;52.182;7.650;2024-01-30T09:30:12;9.43;;;8.40;;
12703;SDS011;6416;52.182;7.650;2024-01-30T09:32:39;9.77;;;8.00;;
12703;SDS011;6416;52.182;7.650;2024-01-30T09:35:04;9.83;;;8.67;;
12703;SDS011;6416;52.182;7.650;2024-01-30T09:37:30;9.37;;;8.37;;
12703;SDS011;6416;52.182;7.650;2024-01-30T09:39:56;10.63;;;7.97;;
12703;SDS011;6416;52.182;7.650;2024-01-30T09:42:54;10.47;;;8.40;;
12703;SDS011;6416;52.182;7.650;2024-01-30T09:45:14;11.10;;;8.40;;
12703;SDS011;6416;52.182;7.650;2024-01-30T09:47:40;8.73;;;7.93;;
12703;SDS011;6416;52.182;7.650;2024-01-30T09:50:07;9.03;;;8.07;;
12703;SDS011;6416;52.182;7.650;2024-01-30T09:52:33;10.13;;;8.30;;
12703;SDS011;6416;52.182;7.650;2024-01-30T09:54:59;10.90;;;9.10;;
12703;SDS011;6416;52.182;7.650;2024-01-30T09:57:25;10.00;;;8.80;;
12703;SDS011;6416;52.182;7.650;2024-01-30T09:59:51;10.23;;;8.33;;
12703;SDS011;6416;52.182;7.650;2024-01-30T10:02:16;8.90;;;8.00;;
12703;SDS011;6416;52.182;7.650;2024-01-30T10:04:43;13.87;;;8.90;;
12703;SDS011;6416;52.182;7.650;2024-01-30T10:07:09;12.67;;;8.57;;
12703;SDS011;6416;52.182;7.650;2024-01-30T10:09:36;10.10;;;8.37;;
12703;SDS011;6416;52.182;7.650;2024-01-30T10:12:02;12.40;;;7.50;;
12703;SDS011;6416;52.182;7.650;2024-01-30T10:14:27;8.77;;;7.80;;
12703;SDS011;6416;52.182;7.650;2024-01-30T10:16:53;9.87;;;8.60;;
12703;SDS011;6416;52.182;7.650;2024-01-30T10:19:20;9.53;;;8.33;;
12703;SDS011;6416;52.182;7.650;2024-01-30T10:21:45;10.40;;;8.33;;
12703;SDS011;6416;52.182;7.650;2024-01-30T10:24:11;10.27;;;8.70;;
12703;SDS011;6416;52.182;7.650;2024-01-30T10:26:37;9.37;;;8.30;;
12703;SDS011;6416;52.182;7.650;2024-01-30T10:29:03;9.03;;;8.00;;
12703;SDS011;6416;52.182;7.650;2024-01-30T10:31:29;9.17;;;8.10;;
12703;SDS011;6416;52.182;7.650;2024-01-30T10:33:54;8.73;;;7.80;;
12703;SDS011;6416;52.182;7.650;2024-01-30T10:36:20;8.60;;;7.70;;
12703;SDS011;6416;52.182;7.650;2024-01-30T10:38:52;10.50;;;8.13;;
12703;SDS011;6416;52.182;7.650;2024-01-30T10:41:22;8.90;;;8.00;;
12703;SDS011;6416;52.182;7.650;2024-01-30T10:44:02;8.80;;;7.90;;
12703;SDS011;6416;52.182;7.650;2024-01-30T10:46:33;8.70;;;7.80;;
12703;SDS011;6416;52.182;7.650;2024-01-30T10:49:02;7.87;;;7.07;;
12703;SDS011;6416;52.182;7.650;2024-01-30T10:51:28;8.47;;;7.13;;
12703;SDS011;6416;52.182;7.650;2024-01-30T10:53:56;9.10;;;7.63;;
12703;SDS011;6416;52.182;7.650;2024-01-30T10:56:22;12.37;;;8.23;;
12703;SDS011;6416;52.182;7.650;2024-01-30T10:58:48;10.60;;;7.97;;
12703;SDS011;6416;52.182;7.650;2024-01-30T11:01:15;9.60;;;7.37;;
12703;SDS011;6416;52.182;7.650;2024-01-30T11:03:42;10.37;;;7.33;;
12703;SDS011;6416;52.182;7.650;2024-01-30T11:06:10;10.80;;;7.27;;
12703;SDS011;6416;52.182;7.650;2024-01-30T11:08:36;9.33;;;7.40;;
12703;SDS011;6416;52.182;7.650;2024-01-30T11:11:01;10.20;;;7.23;;
12703;SDS011;6416;52.182;7.650;2024-01-30T11:13:34;8.20;;;6.80;;
12703;SDS011;6416;52.182;7.650;2024-01-30T11:16:00;9.53;;;7.93;;
12703;SDS011;6416;52.182;7.650;2024-01-30T11:18:28;9.03;;;7.10;;
12703;SDS011;6416;52.182;7.650;2024-01-30T11:20:58;8.50;;;7.60;;
12703;SDS011;6416;52.182;7.650;2024-01-30T11:23:25;9.73;;;7.87;;
12703;SDS011;6416;52.182;7.650;2024-01-30T11:25:52;9.33;;;7.40;;
12703;SDS011;6416;52.182;7.650;2024-01-30T11:28:17;16.20;;;7.63;;
12703;SDS011;6416;52.182;7.650;2024-01-30T11:30:43;8.13;;;7.33;;
12703;SDS011;6416;52.182;7.650;2024-01-30T11:35:39;8.40;;;6.60;;
12703;SDS011;6416;52.182;7.650;2024-01-30T11:38:06;10.33;;;7.70;;
12703;SDS011;6416;52.182;7.650;2024-01-30T11:40:33;9.53;;;6.90;;
12703;SDS011;6416;52.182;7.650;2024-01-30T11:43:00;8.60;;;7.03;;
12703;SDS011;6416;52.182;7.650;2024-01-30T11:45:27;8.70;;;6.70;;
12703;SDS011;6416;52.182;7.650;2024-01-30T11:47:53;9.07;;;6.63;;
12703;SDS011;6416;52.182;7.650;2024-01-30T11:50:19;8.50;;;6.60;;
12703;SDS011;6416;52.182;7.650;2024-01-30T11:52:45;7.40;;;6.17;;
12703;SDS011;6416;52.182;7.650;2024-01-30T11:55:10;7.73;;;6.90;;
12703;SDS011;6416;52.182;7.650;2024-01-30T11:57:37;9.87;;;6.83;;
12703;SDS011;6416;52.182;7.650;2024-01-30T12:00:03;10.87;;;6.70;;
12703;SDS011;6416;52.182;7.650;2024-01-30T12:02:29;10.13;;;6.87;;
12703;SDS011;6416;52.182;7.650;2024-01-30T12:04:54;7.53;;;6.30;;
12703;SDS011;6416;52.182;7.650;2024-01-30T12:07:20;13.57;;;6.90;;
12703;SDS011;6416;52.182;7.650;2024-01-30T12:09:52;8.13;;;6.40;;
12703;SDS011;6416;52.182;7.650;2024-01-30T12:12:18;9.87;;;6.37;;
12703;SDS011;6416;52.182;7.650;2024-01-30T12:14:43;8.60;;;6.77;;
12703;SDS011;6416;52.182;7.650;2024-01-30T12:17:09;8.57;;;6.70;;
12703;SDS011;6416;52.182;7.650;2024-01-30T12:19:34;10.63;;;6.57;;
12703;SDS011;6416;52.182;7.650;2024-01-30T12:22:00;11.10;;;6.53;;
12703;SDS011;6416;52.182;7.650;2024-01-30T12:24:26;12.40;;;6.90;;
12703;SDS011;6416;52.182;7.650;2024-01-30T12:26:52;10.83;;;6.20;;
12703;SDS011;6416;52.182;7.650;2024-01-30T12:29:22;7.77;;;6.10;;
12703;SDS011;6416;52.182;7.650;2024-01-30T12:31:47;8.47;;;6.67;;
12703;SDS011;6416;52.182;7.650;2024-01-30T12:34:16;8.63;;;6.37;;
12703;SDS011;6416;52.182;7.650;2024-01-30T12:36:42;9.87;;;6.97;;
12703;SDS011;6416;52.182;7.650;2024-01-30T12:39:10;9.10;;;6.37;;
12703;SDS011;6416;52.182;7.650;2024-01-30T12:41:36;8.73;;;6.63;;
12703;SDS011;6416;52.182;7.650;2024-01-30T12:44:02;9.07;;;6.60;;
12703;SDS011;6416;52.182;7.650;2024-01-30T12:46:28;10.60;;;6.03;;
12703;SDS011;6416;52.182;7.650;2024-01-30T12:48:53;9.77;;;6.80;;
12703;SDS011;6416;52.182;7.650;2024-01-30T12:51:19;7.70;;;6.73;;
12703;SDS011;6416;52.182;7.650;2024-01-30T12:53:44;8.70;;;6.40;;
12703;SDS011;6416;52.182;7.650;2024-01-30T12:56:10;9.20;;;7.03;;
12703;SDS011;6416;52.182;7.650;2024-01-30T12:58:35;10.23;;;6.93;;
12703;SDS011;6416;52.182;7.650;2024-01-30T13:01:01;9.23;;;6.63;;
12703;SDS011;6416;52.182;7.650;2024-01-30T13:03:26;10.17;;;6.77;;
12703;SDS011;6416;52.182;7.650;2024-01-30T13:05:52;8.67;;;6.50;;
12703;SDS011;6416;52.182;7.650;2024-01-30T13:08:17;9.33;;;6.93;;
12703;SDS011;6416;52.182;7.650;2024-01-30T13:10:42;12.53;;;7.37;;
12703;SDS011;6416;52.182;7.650;2024-01-30T13:13:08;8.90;;;6.77;;
12703;SDS011;6416;52.182;7.650;2024-01-30T13:15:33;10.57;;;6.70;;
12703;SDS011;6416;52.182;7.650;2024-01-30T13:17:59;10.50;;;7.20;;
12703;SDS011;6416;52.182;7.650;2024-01-30T13:20:24;8.87;;;6.60;;
12703;SDS011;6416;52.182;7.650;2024-01-30T13:22:50;8.67;;;6.87;;
12703;SDS011;6416;52.182;7.650;2024-01-30T13:25:15;10.23;;;6.90;;
12703;SDS011;6416;52.182;7.650;2024-01-30T13:27:41;12.83;;;7.20;;
12703;SDS011;6416;52.182;7.650;2024-01-30T13:30:07;7.90;;;6.50;;
12703;SDS011;6416;52.182;7.650;2024-01-30T13:32:33;7.73;;;6.43;;
12703;SDS011;6416;52.182;7.650;2024-01-30T13:34:58;6.77;;;5.67;;
12703;SDS011;6416;52.182;7.650;2024-01-30T13:37:26;8.33;;;5.93;;
12703;SDS011;6416;52.182;7.650;2024-01-30T13:39:52;9.73;;;5.73;;
12703;SDS011;6416;52.182;7.650;2024-01-30T13:42:18;7.80;;;6.17;;
12703;SDS011;6416;52.182;7.650;2024-01-30T13:44:43;8.90;;;6.10;;
12703;SDS011;6416;52.182;7.650;2024-01-30T13:47:09;10.37;;;6.70;;
12703;SDS011;6416;52.182;7.650;2024-01-30T13:49:34;8.50;;;6.53;;
12703;SDS011;6416;52.182;7.650;2024-01-30T13:52:00;10.40;;;7.03;;
12703;SDS011;6416;52.182;7.650;2024-01-30T13:54:25;8.00;;;5.90;;
12703;SDS011;6416;52.182;7.650;2024-01-30T13:56:51;8.60;;;6.50;;
12703;SDS011;6416;52.182;7.650;2024-01-30T13:59:17;8.90;;;6.30;;
12703;SDS011;6416;52.182;7.650;2024-01-30T14:01:42;9.07;;;6.20;;
12703;SDS011;6416;52.182;7.650;2024-01-30T14:04:07;8.73;;;5.93;;
12703;SDS011;6416;52.182;7.650;2024-01-30T14:06:33;9.77;;;6.20;;
12703;SDS011;6416;52.182;7.650;2024-01-30T14:08:58;10.73;;;6.90;;
12703;SDS011;6416;52.182;7.650;2024-01-30T14:11:24;8.80;;;6.57;;
12703;SDS011;6416;52.182;7.650;2024-01-30T14:13:49;9.27;;;6.63;;
12703;SDS011;6416;52.182;7.650;2024-01-30T14:16:15;9.00;;;6.47;;
12703;SDS011;6416;52.182;7.650;2024-01-30T14:18:40;11.97;;;7.17;;
12703;SDS011;6416;52.182;7.650;2024-01-30T14:21:06;10.30;;;6.83;;
12703;SDS011;6416;52.182;7.650;2024-01-30T14:23:31;7.83;;;6.50;;
12703;SDS011;6416;52.182;7.650;2024-01-30T14:25:57;8.10;;;7.00;;
12703;SDS011;6416;52.182;7.650;2024-01-30T14:28:22;10.37;;;6.63;;
12703;SDS011;6416;52.182;7.650;2024-01-30T14:30:48;8.47;;;7.00;;
12703;SDS011;6416;52.182;7.650;2024-01-30T14:33:14;10.97;;;7.30;;
12703;SDS011;6416;52.182;7.650;2024-01-30T14:35:39;7.60;;;6.53;;
12703;SDS011;6416;52.182;7.650;2024-01-30T14:38:05;12.37;;;6.90;;
12703;SDS011;6416;52.182;7.650;2024-01-30T14:40:30;12.80;;;6.60;;